PRIVATE WETTERSTATION BILLIGHEIM-ALLFELD                       ZURCK
Wetterdaten: Donnerstag, 24.03.2022
Datum Zeit Temp. A. Temp. A. min Temp. A. max Feuchte A. Luftdruck Regen Wind Richtung Richtung Sonnenschein ET Solar Taupunkt Windchill Windben Empfang
24.03.2022 00:00 4,2 C 4,2 C 4,3 C 67 % 1027,9 hPa 0,0 l/m 0,0 km/h (0 Bft) N-NO 22 0 min 0,025 mm 0 W/m -1,4 C 4,2 C 1,6 km/h (1 Bft) 100 %
24.03.2022 00:10 4,1 C 4,1 C 4,2 C 67 % 1027,8 hPa 0,0 l/m 0,0 km/h (0 Bft) N 0 0 min 0,000 mm 0 W/m -1,5 C 4,1 C 0,0 km/h (0 Bft) 100 %
24.03.2022 00:20 4,0 C 4,0 C 4,1 C 68 % 1027,8 hPa 0,0 l/m 0,0 km/h (0 Bft) N-NO 22 0 min 0,000 mm 0 W/m -1,4 C 4,0 C 1,6 km/h (1 Bft) 95 %
24.03.2022 00:30 3,8 C 3,8 C 4,0 C 68 % 1027,8 hPa 0,0 l/m 0,0 km/h (0 Bft) N-NO 22 0 min 0,000 mm 0 W/m -1,6 C 3,8 C 4,8 km/h (1 Bft) 94 %
24.03.2022 00:40 3,6 C 3,6 C 3,8 C 69 % 1027,8 hPa 0,0 l/m 0,0 km/h (0 Bft) N 0 0 min 0,000 mm 0 W/m -1,5 C 3,6 C 0,0 km/h (0 Bft) 100 %
24.03.2022 00:50 3,7 C 3,5 C 3,7 C 68 % 1027,8 hPa 0,0 l/m 0,0 km/h (0 Bft) N 0 0 min 0,000 mm 0 W/m -1,6 C 3,7 C 0,0 km/h (0 Bft) 100 %
24.03.2022 01:00 3,8 C 3,7 C 3,8 C 69 % 1027,8 hPa 0,0 l/m 0,0 km/h (0 Bft) N 0 0 min 0,025 mm 0 W/m -1,4 C 3,8 C 0,0 km/h (0 Bft) 100 %
24.03.2022 01:10 3,8 C 3,8 C 3,8 C 69 % 1027,8 hPa 0,0 l/m 0,0 km/h (0 Bft) N 0 0 min 0,000 mm 0 W/m -1,4 C 3,8 C 0,0 km/h (0 Bft) 100 %
24.03.2022 01:20 3,6 C 3,6 C 3,8 C 68 % 1027,7 hPa 0,0 l/m 0,0 km/h (0 Bft) N 0 0 min 0,000 mm 0 W/m -1,7 C 3,6 C 0,0 km/h (0 Bft) 100 %
24.03.2022 01:30 3,4 C 3,4 C 3,6 C 69 % 1027,6 hPa 0,0 l/m 0,0 km/h (0 Bft) N 0 0 min 0,000 mm 0 W/m -1,7 C 3,4 C 0,0 km/h (0 Bft) 100 %
24.03.2022 01:40 3,4 C 3,4 C 3,5 C 69 % 1027,6 hPa 0,0 l/m 0,0 km/h (0 Bft) N 0 0 min 0,000 mm 0 W/m -1,7 C 3,4 C 0,0 km/h (0 Bft) 100 %
24.03.2022 01:50 3,1 C 3,1 C 3,4 C 69 % 1027,6 hPa 0,0 l/m 0,0 km/h (0 Bft) N 0 0 min 0,000 mm 0 W/m -2,0 C 3,1 C 0,0 km/h (0 Bft) 100 %
24.03.2022 02:00 2,9 C 2,9 C 3,1 C 70 % 1027,5 hPa 0,0 l/m 0,0 km/h (0 Bft) N 0 0 min 0,025 mm 0 W/m -2,0 C 2,9 C 0,0 km/h (0 Bft) 100 %
24.03.2022 02:10 3,1 C 2,9 C 3,1 C 70 % 1027,5 hPa 0,0 l/m 0,0 km/h (0 Bft) N 0 0 min 0,000 mm 0 W/m -1,8 C 3,1 C 0,0 km/h (0 Bft) 100 %
24.03.2022 02:20 2,9 C 2,9 C 3,1 C 70 % 1027,4 hPa 0,0 l/m 0,0 km/h (0 Bft) N 0 0 min 0,000 mm 0 W/m -2,0 C 2,9 C 0,0 km/h (0 Bft) 100 %
24.03.2022 02:30 2,6 C 2,6 C 2,9 C 70 % 1027,4 hPa 0,0 l/m 0,0 km/h (0 Bft) N-NO 22 0 min 0,000 mm 0 W/m -2,3 C 2,6 C 1,6 km/h (1 Bft) 100 %
24.03.2022 02:40 2,6 C 2,5 C 2,6 C 70 % 1027,3 hPa 0,0 l/m 0,0 km/h (0 Bft) N 0 0 min 0,000 mm 0 W/m -2,3 C 2,6 C 0,0 km/h (0 Bft) 100 %
24.03.2022 02:50 2,7 C 2,6 C 2,7 C 71 % 1027,3 hPa 0,0 l/m 0,0 km/h (0 Bft) N 0 0 min 0,000 mm 0 W/m -2,0 C 2,7 C 0,0 km/h (0 Bft) 100 %
24.03.2022 03:00 2,1 C 2,1 C 2,7 C 73 % 1027,2 hPa 0,0 l/m 0,0 km/h (0 Bft) N-NO 22 0 min 0,025 mm 0 W/m -2,2 C 2,1 C 4,8 km/h (1 Bft) 99 %
24.03.2022 03:10 1,6 C 1,6 C 2,1 C 75 % 1027,3 hPa 0,0 l/m 0,0 km/h (0 Bft) N 0 0 min 0,000 mm 0 W/m -2,3 C 1,6 C 0,0 km/h (0 Bft) 99 %
24.03.2022 03:20 1,2 C 1,2 C 1,6 C 77 % 1027,2 hPa 0,0 l/m 0,0 km/h (0 Bft) N 0 0 min 0,000 mm 0 W/m -2,4 C 1,2 C 0,0 km/h (0 Bft) 100 %
24.03.2022 03:30 0,9 C 0,9 C 1,2 C 78 % 1027,1 hPa 0,0 l/m 0,0 km/h (0 Bft) N 0 0 min 0,000 mm 0 W/m -2,5 C 0,9 C 0,0 km/h (0 Bft) 100 %
24.03.2022 03:40 0,7 C 0,7 C 0,9 C 79 % 1027,1 hPa 0,0 l/m 0,0 km/h (0 Bft) N 0 0 min 0,000 mm 0 W/m -2,5 C 0,7 C 0,0 km/h (0 Bft) 100 %
24.03.2022 03:50 0,4 C 0,4 C 0,7 C 80 % 1027,1 hPa 0,0 l/m 0,0 km/h (0 Bft) N 0 0 min 0,000 mm 0 W/m -2,6 C 0,4 C 0,0 km/h (0 Bft) 100 %
24.03.2022 04:00 0,3 C 0,3 C 0,4 C 80 % 1027,1 hPa 0,0 l/m 0,0 km/h (0 Bft) N 0 0 min 0,000 mm 0 W/m -2,7 C 0,3 C 0,0 km/h (0 Bft) 100 %
24.03.2022 04:10 0,2 C 0,2 C 0,3 C 81 % 1027,1 hPa 0,0 l/m 0,0 km/h (0 Bft) N 0 0 min 0,000 mm 0 W/m -2,7 C 0,2 C 0,0 km/h (0 Bft) 100 %
24.03.2022 04:20 0,2 C 0,2 C 0,2 C 81 % 1027,2 hPa 0,0 l/m 0,0 km/h (0 Bft) N 0 0 min 0,000 mm 0 W/m -2,7 C 0,2 C 0,0 km/h (0 Bft) 99 %
24.03.2022 04:30 0,1 C 0,1 C 0,2 C 81 % 1027,2 hPa 0,0 l/m 0,0 km/h (0 Bft) N 0 0 min 0,000 mm 0 W/m -2,8 C 0,1 C 0,0 km/h (0 Bft) 99 %
24.03.2022 04:40 0,0 C 0,0 C 0,1 C 82 % 1027,2 hPa 0,0 l/m 0,0 km/h (0 Bft) N-NO 22 0 min 0,000 mm 0 W/m -2,7 C 0,0 C 4,8 km/h (1 Bft) 99 %
24.03.2022 04:50 -0,1 C -0,1 C 0,0 C 82 % 1027,1 hPa 0,0 l/m 0,0 km/h (0 Bft) N 0 0 min 0,000 mm 0 W/m -2,8 C -0,1 C 0,0 km/h (0 Bft) 100 %
24.03.2022 05:00 -0,1 C -0,1 C 0,0 C 82 % 1027,2 hPa 0,0 l/m 0,0 km/h (0 Bft) N 0 0 min 0,000 mm 0 W/m -2,8 C -0,1 C 0,0 km/h (0 Bft) 100 %
24.03.2022 05:10 -0,1 C -0,1 C 0,0 C 82 % 1027,1 hPa 0,0 l/m 0,0 km/h (0 Bft) N 0 0 min 0,000 mm 0 W/m -2,8 C -0,1 C 0,0 km/h (0 Bft) 91 %
24.03.2022 05:20 -0,2 C -0,2 C -0,1 C 82 % 1027,2 hPa 0,0 l/m 0,0 km/h (0 Bft) N 0 0 min 0,000 mm 0 W/m -2,9 C -0,2 C 0,0 km/h (0 Bft) 100 %
24.03.2022 05:30 -0,4 C -0,4 C -0,2 C 82 % 1027,3 hPa 0,0 l/m 0,0 km/h (0 Bft) N 0 0 min 0,000 mm 0 W/m -3,1 C -0,4 C 0,0 km/h (0 Bft) 100 %
24.03.2022 05:40 -0,5 C -0,5 C -0,4 C 83 % 1027,3 hPa 0,0 l/m 0,0 km/h (0 Bft) N 0 0 min 0,000 mm 0 W/m -3,0 C -0,5 C 0,0 km/h (0 Bft) 97 %
24.03.2022 05:50 -0,6 C -0,6 C -0,5 C 83 % 1027,4 hPa 0,0 l/m 0,0 km/h (0 Bft) N 0 0 min 0,000 mm 0 W/m -3,1 C -0,6 C 0,0 km/h (0 Bft) 98 %
24.03.2022 06:00 -0,6 C -0,7 C -0,6 C 83 % 1027,5 hPa 0,0 l/m 0,0 km/h (0 Bft) N 0 0 min 0,000 mm 0 W/m -3,1 C -0,6 C 0,0 km/h (0 Bft) 97 %
24.03.2022 06:10 -0,6 C -0,7 C -0,6 C 84 % 1027,6 hPa 0,0 l/m 0,0 km/h (0 Bft) N 0 0 min 0,000 mm 0 W/m -3,0 C -0,6 C 0,0 km/h (0 Bft) 98 %
24.03.2022 06:20 -0,5 C -0,6 C -0,5 C 83 % 1027,6 hPa 0,0 l/m 0,0 km/h (0 Bft) N 0 0 min 0,000 mm 5 W/m -3,0 C -0,5 C 0,0 km/h (0 Bft) 98 %
24.03.2022 06:30 -0,3 C -0,5 C -0,3 C 82 % 1027,6 hPa 0,0 l/m 0,0 km/h (0 Bft) N 0 0 min 0,000 mm 11 W/m -3,0 C -0,3 C 0,0 km/h (0 Bft) 89 %
24.03.2022 06:40 -0,3 C -0,3 C -0,3 C 82 % 1027,6 hPa 0,0 l/m 0,0 km/h (0 Bft) N 0 0 min 0,000 mm 14 W/m -3,0 C -0,3 C 0,0 km/h (0 Bft) 98 %
24.03.2022 06:50 -0,3 C -0,3 C -0,3 C 82 % 1027,6 hPa 0,0 l/m 0,0 km/h (0 Bft) N 0 0 min 0,000 mm 19 W/m -3,0 C -0,3 C 0,0 km/h (0 Bft) 97 %
24.03.2022 07:00 -0,3 C -0,3 C -0,3 C 82 % 1027,6 hPa 0,0 l/m 0,0 km/h (0 Bft) N 0 0 min 0,000 mm 25 W/m -3,0 C -0,3 C 0,0 km/h (0 Bft) 98 %
24.03.2022 07:10 -0,3 C -0,3 C -0,3 C 83 % 1027,7 hPa 0,0 l/m 0,0 km/h (0 Bft) N 0 0 min 0,000 mm 30 W/m -2,8 C -0,3 C 0,0 km/h (0 Bft) 97 %
24.03.2022 07:20 -0,2 C -0,3 C -0,2 C 83 % 1027,7 hPa 0,0 l/m 0,0 km/h (0 Bft) N 0 0 min 0,000 mm 37 W/m -2,7 C -0,2 C 0,0 km/h (0 Bft) 98 %
24.03.2022 07:30 0,0 C -0,2 C 0,0 C 83 % 1027,8 hPa 0,0 l/m 0,0 km/h (0 Bft) N 0 0 min 0,000 mm 51 W/m -2,5 C 0,0 C 0,0 km/h (0 Bft) 98 %
24.03.2022 07:40 0,3 C 0,0 C 0,3 C 82 % 1027,8 hPa 0,0 l/m 0,0 km/h (0 Bft) N 0 0 min 0,000 mm 69 W/m -2,4 C 0,3 C 0,0 km/h (0 Bft) 99 %
24.03.2022 07:50 0,7 C 0,3 C 0,7 C 81 % 1027,8 hPa 0,0 l/m 0,0 km/h (0 Bft) N 0 10 min 0,000 mm 183 W/m -2,2 C 0,7 C 0,0 km/h (0 Bft) 100 %
24.03.2022 08:00 1,3 C 0,7 C 1,3 C 81 % 1027,8 hPa 0,0 l/m 0,0 km/h (0 Bft) N 0 10 min 0,025 mm 206 W/m -1,6 C 1,3 C 0,0 km/h (0 Bft) 100 %
24.03.2022 08:10 2,2 C 1,3 C 2,2 C 82 % 1027,7 hPa 0,0 l/m 0,0 km/h (0 Bft) N 0 10 min 0,000 mm 232 W/m -0,5 C 2,2 C 0,0 km/h (0 Bft) 100 %
24.03.2022 08:20 3,2 C 2,2 C 3,2 C 78 % 1027,8 hPa 0,0 l/m 0,0 km/h (0 Bft) N 0 10 min 0,000 mm 258 W/m -0,3 C 3,2 C 0,0 km/h (0 Bft) 99 %
24.03.2022 08:30 4,2 C 3,2 C 4,2 C 75 % 1027,7 hPa 0,0 l/m 0,0 km/h (0 Bft) N 0 10 min 0,000 mm 283 W/m 0,2 C 4,2 C 0,0 km/h (0 Bft) 100 %
24.03.2022 08:40 5,1 C 4,2 C 5,1 C 70 % 1027,8 hPa 0,0 l/m 0,0 km/h (0 Bft) N 0 10 min 0,000 mm 306 W/m 0,1 C 5,1 C 0,0 km/h (0 Bft) 100 %
24.03.2022 08:50 6,2 C 5,1 C 6,2 C 66 % 1027,9 hPa 0,0 l/m 0,0 km/h (0 Bft) N 0 10 min 0,000 mm 332 W/m 0,3 C 6,2 C 0,0 km/h (0 Bft) 100 %
24.03.2022 09:00 6,9 C 6,3 C 6,9 C 63 % 1027,9 hPa 0,0 l/m 0,0 km/h (0 Bft) N 0 10 min 0,102 mm 355 W/m 0,4 C 6,9 C 0,0 km/h (0 Bft) 100 %
24.03.2022 09:10 7,6 C 7,0 C 7,6 C 61 % 1027,9 hPa 0,0 l/m 0,0 km/h (0 Bft) N 0 10 min 0,000 mm 378 W/m 0,6 C 7,6 C 0,0 km/h (0 Bft) 99 %
24.03.2022 09:20 8,3 C 7,7 C 8,3 C 59 % 1027,9 hPa 0,0 l/m 0,0 km/h (0 Bft) N 0 10 min 0,000 mm 401 W/m 0,8 C 8,3 C 0,0 km/h (0 Bft) 100 %
24.03.2022 09:30 8,9 C 8,3 C 8,9 C 55 % 1027,8 hPa 0,0 l/m 0,0 km/h (0 Bft) N-NO 22 10 min 0,000 mm 424 W/m 0,4 C 8,9 C 1,6 km/h (1 Bft) 100 %
24.03.2022 09:40 9,3 C 8,9 C 9,3 C 55 % 1027,9 hPa 0,0 l/m 0,0 km/h (0 Bft) N 360 10 min 0,000 mm 443 W/m 0,7 C 9,3 C 1,6 km/h (1 Bft) 100 %
24.03.2022 09:50 9,9 C 9,3 C 9,9 C 56 % 1027,8 hPa 0,0 l/m 0,0 km/h (0 Bft) N 0 10 min 0,000 mm 462 W/m 1,5 C 9,9 C 0,0 km/h (0 Bft) 100 %
24.03.2022 10:00 10,7 C 9,9 C 10,7 C 55 % 1027,9 hPa 0,0 l/m 0,0 km/h (0 Bft) N 360 10 min 0,203 mm 483 W/m 2,0 C 10,7 C 1,6 km/h (1 Bft) 100 %
24.03.2022 10:10 11,2 C 10,7 C 11,2 C 56 % 1027,9 hPa 0,0 l/m 0,0 km/h (0 Bft) W-NW 292 10 min 0,000 mm 499 W/m 2,8 C 11,2 C 4,8 km/h (1 Bft) 100 %
24.03.2022 10:20 11,7 C 11,2 C 11,7 C 56 % 1027,8 hPa 0,0 l/m 1,6 km/h (1 Bft) S-SW 202 10 min 0,000 mm 517 W/m 3,2 C 11,7 C 8,0 km/h (2 Bft) 100 %
24.03.2022 10:30 12,1 C 11,7 C 12,1 C 54 % 1027,8 hPa 0,0 l/m 1,6 km/h (1 Bft) S-SW 202 10 min 0,000 mm 533 W/m 3,1 C 12,1 C 8,0 km/h (2 Bft) 100 %
24.03.2022 10:40 12,5 C 12,1 C 12,5 C 53 % 1027,8 hPa 0,0 l/m 1,6 km/h (1 Bft) S-SW 202 10 min 0,000 mm 548 W/m 3,2 C 12,5 C 9,7 km/h (2 Bft) 100 %
24.03.2022 10:50 13,0 C 12,5 C 13,0 C 51 % 1027,8 hPa 0,0 l/m 1,6 km/h (1 Bft) S-SW 202 10 min 0,000 mm 561 W/m 3,1 C 13,0 C 8,0 km/h (2 Bft) 100 %
24.03.2022 11:00 13,6 C 13,1 C 13,6 C 50 % 1027,8 hPa 0,0 l/m 3,2 km/h (1 Bft) S-SW 202 10 min 0,279 mm 573 W/m 3,4 C 13,6 C 9,7 km/h (2 Bft) 100 %
24.03.2022 11:10 14,1 C 13,6 C 14,1 C 46 % 1027,8 hPa 0,0 l/m 0,0 km/h (0 Bft) S-SW 202 10 min 0,000 mm 585 W/m 2,7 C 14,1 C 8,0 km/h (2 Bft) 100 %
24.03.2022 11:20 14,6 C 13,6 C 14,6 C 46 % 1027,7 hPa 0,0 l/m 2,0 km/h (1 Bft) S-SW 198 10 min 0,000 mm 596 W/m 3,1 C 14,6 C 6,4 km/h (2 Bft) 100 %
24.03.2022 11:30 15,0 C 14,6 C 15,0 C 46 % 1027,7 hPa 0,0 l/m 0,2 km/h (0 Bft) S-SW 205 10 min 0,000 mm 601 W/m 3,5 C 15,0 C 6,4 km/h (2 Bft) 97 %
24.03.2022 11:40 15,4 C 15,0 C 15,4 C 44 % 1027,6 hPa 0,0 l/m 0,7 km/h (0 Bft) S 191 10 min 0,000 mm 610 W/m 3,2 C 15,4 C 6,4 km/h (2 Bft) 97 %
24.03.2022 11:50 15,8 C 15,4 C 15,8 C 42 % 1027,6 hPa 0,0 l/m 0,0 km/h (0 Bft) S-SW 203 10 min 0,000 mm 615 W/m 2,9 C 15,8 C 1,6 km/h (1 Bft) 97 %
24.03.2022 12:00 16,3 C 15,8 C 16,3 C 41 % 1027,5 hPa 0,0 l/m 0,0 km/h (0 Bft) S 185 10 min 0,307 mm 619 W/m 3,0 C 16,3 C 1,6 km/h (1 Bft) 97 %
24.03.2022 12:10 16,8 C 16,3 C 16,8 C 43 % 1027,3 hPa 0,0 l/m 0,0 km/h (0 Bft) S 190 10 min 0,000 mm 626 W/m 4,2 C 16,8 C 1,6 km/h (1 Bft) 98 %
24.03.2022 12:20 17,3 C 16,8 C 17,3 C 39 % 1027,4 hPa 0,0 l/m 0,6 km/h (0 Bft) S-SW 204 10 min 0,000 mm 622 W/m 3,2 C 17,3 C 6,4 km/h (2 Bft) 97 %
24.03.2022 12:30 17,7 C 17,3 C 17,7 C 38 % 1027,3 hPa 0,0 l/m 0,2 km/h (0 Bft) S-SW 211 10 min 0,000 mm 622 W/m 3,2 C 17,7 C 6,4 km/h (2 Bft) 98 %
24.03.2022 12:40 17,9 C 17,7 C 17,9 C 36 % 1027,1 hPa 0,0 l/m 0,9 km/h (0 Bft) SW 236 10 min 0,000 mm 622 W/m 2,6 C 17,9 C 8,0 km/h (2 Bft) 97 %
24.03.2022 12:50 17,8 C 17,8 C 17,9 C 36 % 1027,0 hPa 0,0 l/m 0,4 km/h (0 Bft) N 349 10 min 0,000 mm 621 W/m 2,5 C 17,8 C 6,4 km/h (2 Bft) 97 %
24.03.2022 13:00 18,4 C 17,8 C 18,4 C 33 % 1026,8 hPa 0,0 l/m 0,4 km/h (0 Bft) N-NW 337 10 min 0,356 mm 613 W/m 1,8 C 18,4 C 8,0 km/h (2 Bft) 97 %
24.03.2022 13:10 18,8 C 18,4 C 18,8 C 34 % 1026,8 hPa 0,0 l/m 0,0 km/h (0 Bft) N-NW 338 10 min 0,000 mm 612 W/m 2,6 C 18,8 C 1,6 km/h (1 Bft) 97 %
24.03.2022 13:20 19,3 C 18,8 C 19,3 C 31 % 1026,7 hPa 0,0 l/m 0,0 km/h (0 Bft) W-NW 302 10 min 0,000 mm 605 W/m 1,8 C 19,3 C 1,6 km/h (1 Bft) 97 %
24.03.2022 13:30 19,4 C 19,3 C 19,4 C 32 % 1026,5 hPa 0,0 l/m 3,4 km/h (1 Bft) SW 214 10 min 0,000 mm 599 W/m 2,3 C 19,4 C 11,3 km/h (2 Bft) 97 %
24.03.2022 13:40 19,5 C 19,4 C 19,6 C 32 % 1026,4 hPa 0,0 l/m 2,1 km/h (1 Bft) SW 229 10 min 0,000 mm 591 W/m 2,4 C 19,5 C 9,7 km/h (2 Bft) 97 %
24.03.2022 13:50 19,8 C 19,5 C 19,8 C 30 % 1026,3 hPa 0,0 l/m 3,3 km/h (1 Bft) NW 306 10 min 0,000 mm 582 W/m 1,7 C 19,8 C 11,3 km/h (2 Bft) 97 %
24.03.2022 14:00 19,4 C 19,4 C 20,0 C 30 % 1026,2 hPa 0,0 l/m 1,2 km/h (1 Bft) S-SO 158 10 min 0,355 mm 566 W/m 1,4 C 19,4 C 8,0 km/h (2 Bft) 98 %
24.03.2022 14:10 19,6 C 19,2 C 19,6 C 33 % 1026,1 hPa 0,0 l/m 0,8 km/h (0 Bft) NW 315 10 min 0,000 mm 552 W/m 2,9 C 19,6 C 8,0 km/h (2 Bft) 97 %
24.03.2022 14:20 20,3 C 19,6 C 20,3 C 31 % 1026,1 hPa 0,0 l/m 3,4 km/h (1 Bft) N-NW 335 10 min 0,000 mm 538 W/m 2,6 C 20,3 C 11,3 km/h (2 Bft) 97 %
24.03.2022 14:30 20,6 C 20,3 C 20,6 C 31 % 1026,0 hPa 0,0 l/m 2,0 km/h (1 Bft) NW 304 10 min 0,000 mm 524 W/m 2,9 C 20,6 C 11,3 km/h (2 Bft) 97 %
24.03.2022 14:40 20,3 C 20,3 C 20,6 C 30 % 1025,8 hPa 0,0 l/m 0,0 km/h (0 Bft) NW 306 10 min 0,000 mm 506 W/m 2,2 C 20,3 C 0,0 km/h (0 Bft) 97 %
24.03.2022 14:50 20,0 C 19,9 C 20,3 C 31 % 1025,6 hPa 0,0 l/m 1,3 km/h (1 Bft) W-SW 242 10 min 0,000 mm 490 W/m 2,4 C 20,0 C 14,5 km/h (3 Bft) 98 %
24.03.2022 15:00 20,1 C 19,9 C 20,1 C 30 % 1025,5 hPa 0,0 l/m 1,8 km/h (1 Bft) S-SW 200 10 min 0,330 mm 471 W/m 2,0 C 20,1 C 12,9 km/h (3 Bft) 97 %
24.03.2022 15:10 19,6 C 19,6 C 20,1 C 30 % 1025,4 hPa 0,0 l/m 1,9 km/h (1 Bft) S-SO 164 10 min 0,000 mm 450 W/m 1,6 C 19,6 C 11,3 km/h (2 Bft) 97 %
24.03.2022 15:20 20,0 C 19,6 C 20,0 C 30 % 1025,4 hPa 0,0 l/m 0,8 km/h (0 Bft) SW 229 10 min 0,000 mm 424 W/m 1,9 C 20,0 C 9,7 km/h (2 Bft) 98 %
24.03.2022 15:30 20,2 C 20,0 C 20,2 C 30 % 1025,3 hPa 0,0 l/m 1,8 km/h (1 Bft) S-SW 213 10 min 0,000 mm 408 W/m 2,1 C 20,2 C 11,3 km/h (2 Bft) 97 %
24.03.2022 15:40 20,0 C 20,0 C 20,2 C 30 % 1025,1 hPa 0,0 l/m 1,0 km/h (0 Bft) S-SW 209 10 min 0,000 mm 383 W/m 1,9 C 20,0 C 11,3 km/h (2 Bft) 98 %
24.03.2022 15:50 19,7 C 19,7 C 20,0 C 32 % 1025,0 hPa 0,0 l/m 0,4 km/h (0 Bft) S-SW 193 10 min 0,000 mm 362 W/m 2,5 C 19,7 C 6,4 km/h (2 Bft) 97 %
24.03.2022 16:00 19,7 C 19,4 C 19,7 C 32 % 1025,0 hPa 0,0 l/m 1,1 km/h (1 Bft) SW 215 10 min 0,254 mm 343 W/m 2,5 C 19,7 C 9,7 km/h (2 Bft) 98 %
24.03.2022 16:10 19,8 C 19,7 C 19,9 C 31 % 1024,9 hPa 0,0 l/m 0,5 km/h (0 Bft) SW 236 10 min 0,000 mm 318 W/m 2,2 C 19,8 C 9,7 km/h (2 Bft) 97 %
24.03.2022 16:20 19,4 C 19,4 C 19,9 C 31 % 1024,9 hPa 0,0 l/m 4,3 km/h (1 Bft) S-SW 194 10 min 0,000 mm 297 W/m 1,8 C 19,4 C 14,5 km/h (3 Bft) 97 %
24.03.2022 16:30 19,7 C 19,4 C 19,7 C 32 % 1024,8 hPa 0,0 l/m 0,7 km/h (0 Bft) SW 230 10 min 0,000 mm 271 W/m 2,5 C 19,7 C 9,7 km/h (2 Bft) 98 %
24.03.2022 16:40 19,8 C 19,7 C 19,9 C 31 % 1024,8 hPa 0,0 l/m 0,2 km/h (0 Bft) W-SW 237 10 min 0,000 mm 246 W/m 2,2 C 19,8 C 4,8 km/h (1 Bft) 97 %
24.03.2022 16:50 19,8 C 19,8 C 19,9 C 31 % 1024,8 hPa 0,0 l/m 0,2 km/h (0 Bft) SW 214 10 min 0,000 mm 214 W/m 2,2 C 19,8 C 4,8 km/h (1 Bft) 98 %
24.03.2022 17:00 19,6 C 19,6 C 19,8 C 31 % 1024,8 hPa 0,0 l/m 0,2 km/h (0 Bft) SW 219 10 min 0,178 mm 185 W/m 2,0 C 19,6 C 4,8 km/h (1 Bft) 97 %
24.03.2022 17:10 19,2 C 19,2 C 19,6 C 31 % 1024,8 hPa 0,0 l/m 0,1 km/h (0 Bft) W-SW 254 0 min 0,000 mm 63 W/m 1,7 C 19,2 C 3,2 km/h (1 Bft) 98 %
24.03.2022 17:20 18,9 C 18,9 C 19,2 C 32 % 1024,8 hPa 0,0 l/m 0,0 km/h (0 Bft) W-SW 248 0 min 0,000 mm 58 W/m 1,8 C 18,9 C 0,0 km/h (0 Bft) 97 %
24.03.2022 17:30 18,7 C 18,7 C 18,9 C 33 % 1024,8 hPa 0,0 l/m 0,0 km/h (0 Bft) W-SW 246 0 min 0,000 mm 51 W/m 2,1 C 18,7 C 1,6 km/h (1 Bft) 97 %
24.03.2022 17:40 18,3 C 18,3 C 18,7 C 33 % 1024,9 hPa 0,0 l/m 0,0 km/h (0 Bft) W-SW 239 0 min 0,000 mm 46 W/m 1,8 C 18,3 C 0,0 km/h (0 Bft) 98 %
24.03.2022 17:50 17,9 C 17,9 C 18,3 C 36 % 1024,9 hPa 0,0 l/m 0,0 km/h (0 Bft) W-SW 239 0 min 0,000 mm 40 W/m 2,6 C 17,9 C 0,0 km/h (0 Bft) 97 %
24.03.2022 18:00 17,6 C 17,6 C 17,9 C 36 % 1024,9 hPa 0,0 l/m 2,0 km/h (1 Bft) W-NW 297 0 min 0,051 mm 33 W/m 2,4 C 17,6 C 11,3 km/h (2 Bft) 98 %
24.03.2022 18:10 17,3 C 17,3 C 17,6 C 37 % 1024,9 hPa 0,0 l/m 3,1 km/h (1 Bft) W-NW 295 0 min 0,000 mm 26 W/m 2,5 C 17,3 C 8,0 km/h (2 Bft) 97 %
24.03.2022 18:20 16,8 C 16,8 C 17,3 C 40 % 1024,9 hPa 0,0 l/m 0,3 km/h (0 Bft) W-NW 295 0 min 0,000 mm 19 W/m 3,1 C 16,8 C 3,2 km/h (1 Bft) 98 %
24.03.2022 18:30 16,3 C 16,3 C 16,8 C 41 % 1025,0 hPa 0,0 l/m 0,8 km/h (0 Bft) W-NW 295 0 min 0,000 mm 12 W/m 3,0 C 16,3 C 3,2 km/h (1 Bft) 97 %
24.03.2022 18:40 15,8 C 15,8 C 16,3 C 39 % 1025,1 hPa 0,0 l/m 1,4 km/h (1 Bft) W-NW 295 0 min 0,000 mm 5 W/m 1,9 C 15,8 C 4,8 km/h (1 Bft) 97 %
24.03.2022 18:50 15,2 C 15,2 C 15,8 C 42 % 1025,2 hPa 0,0 l/m 1,5 km/h (1 Bft) NW 304 0 min 0,000 mm 0 W/m 2,4 C 15,2 C 4,8 km/h (1 Bft) 98 %
24.03.2022 19:00 14,5 C 14,5 C 15,2 C 41 % 1025,2 hPa 0,0 l/m 2,4 km/h (1 Bft) N-NW 340 0 min 0,025 mm 0 W/m 1,4 C 14,5 C 8,0 km/h (2 Bft) 97 %
24.03.2022 19:10 13,9 C 13,9 C 14,5 C 42 % 1025,4 hPa 0,0 l/m 0,8 km/h (0 Bft) N-NW 343 0 min 0,000 mm 0 W/m 1,2 C 13,9 C 4,8 km/h (1 Bft) 98 %
24.03.2022 19:20 13,5 C 13,5 C 13,9 C 44 % 1025,5 hPa 0,0 l/m 0,9 km/h (0 Bft) N-NW 343 0 min 0,000 mm 0 W/m 1,5 C 13,5 C 3,2 km/h (1 Bft) 97 %
24.03.2022 19:30 12,9 C 12,9 C 13,5 C 45 % 1025,6 hPa 0,0 l/m 0,5 km/h (0 Bft) N-NW 343 0 min 0,000 mm 0 W/m 1,3 C 12,9 C 3,2 km/h (1 Bft) 97 %
24.03.2022 19:40 12,4 C 12,4 C 12,9 C 46 % 1025,6 hPa 0,0 l/m 1,5 km/h (1 Bft) N-NW 343 0 min 0,000 mm 0 W/m 1,1 C 12,4 C 4,8 km/h (1 Bft) 97 %
24.03.2022 19:50 11,9 C 11,9 C 12,4 C 48 % 1025,7 hPa 0,0 l/m 2,5 km/h (1 Bft) N-NW 344 0 min 0,000 mm 0 W/m 1,2 C 11,9 C 6,4 km/h (2 Bft) 97 %
24.03.2022 20:00 11,6 C 11,6 C 11,9 C 48 % 1025,7 hPa 0,0 l/m 1,6 km/h (1 Bft) N-NW 344 0 min 0,051 mm 0 W/m 1,0 C 11,6 C 3,2 km/h (1 Bft) 98 %
24.03.2022 20:10 11,5 C 11,4 C 11,6 C 48 % 1025,7 hPa 0,0 l/m 1,8 km/h (1 Bft) N-NW 344 0 min 0,000 mm 0 W/m 0,9 C 11,5 C 3,2 km/h (1 Bft) 97 %
24.03.2022 20:20 11,3 C 11,3 C 11,5 C 48 % 1025,6 hPa 0,0 l/m 0,4 km/h (0 Bft) N-NW 344 0 min 0,000 mm 0 W/m 0,7 C 11,3 C 1,6 km/h (1 Bft) 98 %
24.03.2022 20:30 11,1 C 11,1 C 11,3 C 47 % 1025,7 hPa 0,0 l/m 0,0 km/h (0 Bft) N-NW 344 0 min 0,000 mm 0 W/m 0,2 C 11,1 C 0,0 km/h (0 Bft) 97 %
24.03.2022 20:40 10,8 C 10,8 C 11,1 C 48 % 1025,6 hPa 0,0 l/m 0,0 km/h (0 Bft) N-NW 344 0 min 0,000 mm 0 W/m 0,2 C 10,8 C 0,0 km/h (0 Bft) 90 %
24.03.2022 20:50 10,7 C 10,7 C 10,8 C 47 % 1025,6 hPa 0,0 l/m 0,9 km/h (0 Bft) N-NW 344 0 min 0,000 mm 0 W/m -0,1 C 10,7 C 3,2 km/h (1 Bft) 97 %
24.03.2022 21:00 10,4 C 10,4 C 10,7 C 52 % 1025,7 hPa 0,0 l/m 0,2 km/h (0 Bft) N-NW 344 0 min 0,051 mm 0 W/m 1,0 C 10,4 C 3,2 km/h (1 Bft) 96 %
24.03.2022 21:10 9,6 C 9,6 C 10,4 C 55 % 1025,8 hPa 0,0 l/m 0,0 km/h (0 Bft) N 0 0 min 0,000 mm 0 W/m 1,0 C 9,6 C 0,0 km/h (0 Bft) 100 %
24.03.2022 21:20 9,0 C 9,0 C 9,6 C 56 % 1025,8 hPa 0,0 l/m 0,0 km/h (0 Bft) N 0 0 min 0,000 mm 0 W/m 0,7 C 9,0 C 0,0 km/h (0 Bft) 100 %
24.03.2022 21:30 8,6 C 8,6 C 9,0 C 57 % 1025,8 hPa 0,0 l/m 0,0 km/h (0 Bft) N 0 0 min 0,000 mm 0 W/m 0,6 C 8,6 C 0,0 km/h (0 Bft) 100 %
24.03.2022 21:40 8,3 C 8,3 C 8,6 C 58 % 1025,8 hPa 0,0 l/m 0,0 km/h (0 Bft) N 0 0 min 0,000 mm 0 W/m 0,5 C 8,3 C 0,0 km/h (0 Bft) 100 %
24.03.2022 21:50 7,9 C 7,9 C 8,3 C 59 % 1025,8 hPa 0,0 l/m 0,0 km/h (0 Bft) N 0 0 min 0,000 mm 0 W/m 0,4 C 7,9 C 0,0 km/h (0 Bft) 100 %
24.03.2022 22:00 7,7 C 7,7 C 7,9 C 58 % 1025,8 hPa 0,0 l/m 0,0 km/h (0 Bft) N 0 0 min 0,025 mm 0 W/m -0,0 C 7,7 C 0,0 km/h (0 Bft) 100 %
24.03.2022 22:10 7,6 C 7,6 C 7,7 C 59 % 1025,8 hPa 0,0 l/m 0,0 km/h (0 Bft) N 0 0 min 0,000 mm 0 W/m 0,1 C 7,6 C 0,0 km/h (0 Bft) 100 %
24.03.2022 22:20 7,4 C 7,4 C 7,6 C 59 % 1025,9 hPa 0,0 l/m 0,0 km/h (0 Bft) N 0 0 min 0,000 mm 0 W/m -0,1 C 7,4 C 0,0 km/h (0 Bft) 100 %
24.03.2022 22:30 7,2 C 7,2 C 7,4 C 61 % 1025,9 hPa 0,0 l/m 0,0 km/h (0 Bft) N 0 0 min 0,000 mm 0 W/m 0,2 C 7,2 C 0,0 km/h (0 Bft) 100 %
24.03.2022 22:40 6,8 C 6,8 C 7,2 C 61 % 1025,8 hPa 0,0 l/m 1,6 km/h (1 Bft) N-NW 337 0 min 0,000 mm 0 W/m -0,2 C 6,8 C 3,2 km/h (1 Bft) 100 %
24.03.2022 22:50 6,6 C 6,6 C 6,8 C 60 % 1025,8 hPa 0,0 l/m 1,6 km/h (1 Bft) N-NW 337 0 min 0,000 mm 0 W/m -0,6 C 6,6 C 1,6 km/h (1 Bft) 100 %
24.03.2022 23:00 6,6 C 6,6 C 6,6 C 59 % 1025,8 hPa 0,0 l/m 1,6 km/h (1 Bft) N-NW 337 0 min 0,025 mm 0 W/m -0,8 C 6,6 C 3,2 km/h (1 Bft) 100 %
24.03.2022 23:10 6,7 C 6,6 C 6,7 C 61 % 1025,8 hPa 0,0 l/m 0,0 km/h (0 Bft) N 0 0 min 0,000 mm 0 W/m -0,3 C 6,7 C 0,0 km/h (0 Bft) 100 %
24.03.2022 23:20 6,4 C 6,4 C 6,7 C 62 % 1025,8 hPa 0,0 l/m 0,0 km/h (0 Bft) N 0 0 min 0,000 mm 0 W/m -0,3 C 6,4 C 0,0 km/h (0 Bft) 91 %
24.03.2022 23:30 6,0 C 6,0 C 6,4 C 63 % 1025,9 hPa 0,0 l/m 0,0 km/h (0 Bft) N 0 0 min 0,000 mm 0 W/m -0,5 C 6,0 C 0,0 km/h (0 Bft) 100 %
24.03.2022 23:40 5,7 C 5,7 C 6,0 C 64 % 1025,9 hPa 0,0 l/m 0,0 km/h (0 Bft) N 0 0 min 0,000 mm 0 W/m -0,6 C 5,7 C 0,0 km/h (0 Bft) 100 %
24.03.2022 23:50 5,6 C 5,6 C 5,7 C 65 % 1026,0 hPa 0,0 l/m 0,0 km/h (0 Bft) N 0 0 min 0,000 mm 0 W/m -0,4 C 5,6 C 0,0 km/h (0 Bft) 100 %
_ Min-Zeit 06:00 06:00 06:00 13:50 16:30 - 00:00 - - - - - 05:50 05:50 00:10 06:30
Minimum _ -0,7 C -0,7 C -0,6 C 30 % 1024,8 hPa - 0,0 km/h (0 Bft) - - - - - -3,1 C -0,6 C 0,0 km/h (0 Bft) 89 %
_ Max-Zeit 14:30 14:30 14:30 06:10 00:00 00:00 16:20 - - 07:50 13:00 12:10 12:10 14:30 14:50 00:10
Maximum _ 20,6 C 20,3 C 20,6 C 84 % 1027,9 hPa 0,0 l/m 4,3 km/h
S-SW (1 Bft)
- - 10 min 0,356 mm 626 W/m 4,2 C 20,6 C 14,5 km/h
S-SW (3 Bft)
100 %
Durchschnitt _ 9,5 C 9,3 C 9,6 C 56 % 1026,6 hPa #0,0 l/m 0,5 km/h (0 Bft) S-SW - #9:20 h #2,717 mm 353 W/m 0,2 C 9,5 C 3,1 km/h (1 Bft) 98 %
PRIVATE WETTERSTATION BILLIGHEIM-ALLFELD - www.neckar-odenwald-wetter.de - Holger Sonntag